X  Close Metar Aviation Weather Data     KBFM Mobile Downtown Airport
Temperature
46°F Temperature
45°F Dewpoint
93% Humidity



Wind
7 MPH
11 KM/H
3 M/S
6 KTS



320°
NW
Current Conditions

Clear Clear
Pressure 1020.62 (hPa) - 30.14 (inHg)
Visibility 9.9 (mile) - 16 (km)
Airport
Airport-code KBFM

Location: Mobile Downtown Airport
Distance: 8 (mi)

Metar:
KBFM 290753Z AUTO 32006KT 10SM CLR 08/07 A3014 RMK AO2 SLP207 T00830067

Time: 29-11-2021 1:53 am CST